createdAt,value
2023-01-07T00:01:02.840Z,99.90
2023-01-07T00:03:30.206Z,99.90
2023-01-07T00:06:08.325Z,99.90
2023-01-07T00:08:37.653Z,99.90
2023-01-07T00:11:05.823Z,99.90
2023-01-07T00:13:33.223Z,99.90
2023-01-07T00:16:01.775Z,99.90
2023-01-07T00:18:28.891Z,99.90
2023-01-07T00:20:59.993Z,99.90
2023-01-07T00:23:27.718Z,99.90
2023-01-07T00:26:01.193Z,99.90
2023-01-07T00:28:28.020Z,99.90
2023-01-07T00:31:06.947Z,99.90
2023-01-07T00:33:35.420Z,99.90
2023-01-07T00:36:09.893Z,99.90
2023-01-07T00:38:37.351Z,99.90
2023-01-07T00:41:04.767Z,99.90
2023-01-07T00:43:31.818Z,99.90
2023-01-07T00:45:58.422Z,99.90
2023-01-07T00:48:25.189Z,99.90
2023-01-07T00:50:52.943Z,99.90
2023-01-07T00:53:20.491Z,99.90
2023-01-07T00:55:51.252Z,99.90
2023-01-07T00:58:21.653Z,99.90
2023-01-07T01:00:48.685Z,99.90
2023-01-07T01:03:15.610Z,99.90
2023-01-07T01:05:42.363Z,99.90
2023-01-07T01:08:09.988Z,99.90
2023-01-07T01:10:36.659Z,99.90
2023-01-07T01:13:03.315Z,99.90
2023-01-07T01:15:29.932Z,99.90
2023-01-07T01:17:56.634Z,99.90
2023-01-07T01:20:23.341Z,99.90
2023-01-07T01:22:50.017Z,99.90
2023-01-07T01:25:16.701Z,99.90
2023-01-07T01:27:43.993Z,99.90
2023-01-07T01:30:10.921Z,99.90
2023-01-07T01:32:37.488Z,99.90
2023-01-07T01:35:04.387Z,99.90
2023-01-07T01:37:31.021Z,99.90
2023-01-07T01:39:57.911Z,99.90
2023-01-07T01:42:25.151Z,99.90
2023-01-07T01:44:53.389Z,99.90
2023-01-07T01:47:33.176Z,99.90
2023-01-07T01:50:26.640Z,99.90
2023-01-07T01:53:00.532Z,99.90
2023-01-07T01:56:01.814Z,99.90
2023-01-07T01:58:41.944Z,99.90
2023-01-07T02:01:09.247Z,99.90
2023-01-07T02:03:37.767Z,99.90
2023-01-07T02:06:06.032Z,99.90
2023-01-07T02:08:32.689Z,99.90
2023-01-07T02:11:38.448Z,99.90
2023-01-07T02:14:32.849Z,99.90
2023-01-07T02:17:19.469Z,99.90
2023-01-07T02:20:23.699Z,99.90
2023-01-07T02:23:07.556Z,99.90
2023-01-07T02:25:52.098Z,99.90
2023-01-07T02:28:43.725Z,99.90
2023-01-07T02:31:42.050Z,99.90
2023-01-07T02:34:38.798Z,99.90
2023-01-07T02:37:14.682Z,99.90
2023-01-07T02:39:53.295Z,99.90
2023-01-07T02:42:46.433Z,99.90
2023-01-07T02:45:30.388Z,99.90
2023-01-07T02:48:00.628Z,99.90
2023-01-07T02:50:27.381Z,99.90
2023-01-07T02:52:55.376Z,99.90
2023-01-07T02:55:35.771Z,99.90
2023-01-07T02:58:48.634Z,99.90
2023-01-07T03:01:43.098Z,99.90
2023-01-07T03:04:27.939Z,99.90
2023-01-07T03:07:19.436Z,99.90
2023-01-07T03:09:48.959Z,99.90
2023-01-07T03:12:44.418Z,99.90
2023-01-07T03:15:22.329Z,99.90
2023-01-07T03:18:06.455Z,99.90
2023-01-07T03:20:36.659Z,99.90
2023-01-07T03:23:07.603Z,99.90
2023-01-07T03:25:40.063Z,99.90
2023-01-07T03:28:09.427Z,99.90
2023-01-07T03:30:38.300Z,99.90
2023-01-07T03:33:09.417Z,99.90
2023-01-07T03:35:38.081Z,99.90
2023-01-07T03:38:06.175Z,99.90
2023-01-07T03:40:32.861Z,99.90
2023-01-07T03:43:00.710Z,99.90
2023-01-07T03:45:28.819Z,99.90
2023-01-07T03:47:56.885Z,99.90
2023-01-07T03:50:23.968Z,99.90
2023-01-07T03:52:53.390Z,99.90
2023-01-07T03:55:20.437Z,99.90
2023-01-07T03:57:47.255Z,99.90
2023-01-07T04:00:14.758Z,99.90
2023-01-07T04:02:42.641Z,99.90
2023-01-07T04:05:10.393Z,99.90
2023-01-07T04:07:37.282Z,99.90
2023-01-07T04:10:06.134Z,99.90
2023-01-07T04:12:32.863Z,99.90
2023-01-07T04:14:59.643Z,99.90
2023-01-07T04:17:26.297Z,99.90
2023-01-07T04:19:52.903Z,99.90
2023-01-07T04:22:19.512Z,99.90
2023-01-07T04:24:46.116Z,99.90
2023-01-07T04:27:12.774Z,99.90
2023-01-07T04:29:39.387Z,99.90
2023-01-07T04:32:06.087Z,99.90
2023-01-07T04:34:32.731Z,99.90
2023-01-07T04:36:59.373Z,99.90
2023-01-07T04:39:26.012Z,99.90
2023-01-07T04:41:52.619Z,99.90
2023-01-07T04:44:19.394Z,99.90
2023-01-07T04:46:46.019Z,99.90
2023-01-07T04:49:12.665Z,99.90
2023-01-07T04:51:39.296Z,99.90
2023-01-07T04:54:05.942Z,99.90
2023-01-07T04:56:32.671Z,99.90
2023-01-07T04:58:59.302Z,99.90
2023-01-07T05:01:26.093Z,99.90
2023-01-07T05:03:52.833Z,99.90
2023-01-07T05:06:19.457Z,99.90
2023-01-07T05:08:46.141Z,99.90
2023-01-07T05:11:12.781Z,99.90
2023-01-07T05:13:39.381Z,99.90
2023-01-07T05:16:06.476Z,99.90
2023-01-07T05:18:33.121Z,99.90
2023-01-07T05:20:59.720Z,99.90
2023-01-07T05:23:26.358Z,99.90
2023-01-07T05:25:52.976Z,99.60
2023-01-07T05:28:19.581Z,99.80
2023-01-07T05:30:47.310Z,99.60
2023-01-07T05:33:13.987Z,99.60
2023-01-07T05:35:40.610Z,99.60
2023-01-07T05:38:07.245Z,99.70
2023-01-07T05:40:33.953Z,99.40
2023-01-07T05:43:00.844Z,99.30
2023-01-07T05:45:27.510Z,99.40
2023-01-07T05:47:54.141Z,99.30
2023-01-07T05:50:20.769Z,99.20
2023-01-07T05:52:47.503Z,99.20
2023-01-07T05:55:14.141Z,99.20
2023-01-07T05:57:40.751Z,99.80
2023-01-07T06:00:10.198Z,98.90
2023-01-07T06:02:37.117Z,98.90
2023-01-07T06:05:04.483Z,98.90
2023-01-07T06:07:31.122Z,98.80
2023-01-07T06:09:57.739Z,98.60
2023-01-07T06:12:24.350Z,98.20
2023-01-07T06:14:50.987Z,98.00
2023-01-07T06:17:17.671Z,98.00
2023-01-07T06:19:44.393Z,98.10
2023-01-07T06:22:11.064Z,98.20
2023-01-07T06:24:37.960Z,98.20
2023-01-07T06:27:04.578Z,98.10
2023-01-07T06:29:31.227Z,98.30
2023-01-07T06:31:58.367Z,98.30
2023-01-07T06:34:25.031Z,98.20
2023-01-07T06:36:51.648Z,98.10
2023-01-07T06:39:18.247Z,97.90
2023-01-07T06:41:44.859Z,98.20
2023-01-07T06:44:11.456Z,98.20
2023-01-07T06:46:38.132Z,98.10
2023-01-07T06:49:04.878Z,98.20
2023-01-07T06:51:31.589Z,98.20
2023-01-07T06:53:58.506Z,98.20
2023-01-07T06:56:25.136Z,98.20
2023-01-07T06:58:51.985Z,98.00
2023-01-07T07:01:20.424Z,97.90
2023-01-07T07:03:47.295Z,98.00
2023-01-07T07:06:13.969Z,98.20
2023-01-07T07:08:40.568Z,97.90
2023-01-07T07:11:07.227Z,97.90
2023-01-07T07:13:34.166Z,97.90
2023-01-07T07:16:00.848Z,98.10
2023-01-07T07:18:27.709Z,98.00
2023-01-07T07:20:54.355Z,97.60
2023-01-07T07:23:20.960Z,97.50
2023-01-07T07:25:47.582Z,97.50
2023-01-07T07:28:14.414Z,97.50
2023-01-07T07:30:47.433Z,97.60
2023-01-07T07:33:18.776Z,97.60
2023-01-07T07:35:45.516Z,97.50
2023-01-07T07:38:12.273Z,98.20
2023-01-07T07:40:38.873Z,98.30
2023-01-07T07:43:11.949Z,97.60
2023-01-07T07:45:40.041Z,97.20
2023-01-07T07:48:07.674Z,96.70
2023-01-07T07:50:35.129Z,96.90
2023-01-07T07:53:02.048Z,96.80
2023-01-07T07:55:28.743Z,96.40
2023-01-07T07:57:56.327Z,96.30
2023-01-07T08:00:23.131Z,96.40
2023-01-07T08:02:51.832Z,96.70
2023-01-07T08:05:18.580Z,96.70
2023-01-07T08:07:45.482Z,96.50
2023-01-07T08:10:12.207Z,96.20
2023-01-07T08:12:39.257Z,95.90
2023-01-07T08:15:07.418Z,95.70
2023-01-07T08:17:35.059Z,95.50
2023-01-07T08:20:02.117Z,95.30
2023-01-07T08:22:28.807Z,95.40
2023-01-07T08:24:55.427Z,95.40
2023-01-07T08:27:22.180Z,95.50
2023-01-07T08:29:48.788Z,95.60
2023-01-07T08:32:15.468Z,95.60
2023-01-07T08:34:42.127Z,95.70
2023-01-07T08:37:09.065Z,95.80
2023-01-07T08:39:36.011Z,95.70
2023-01-07T08:42:02.685Z,95.60
2023-01-07T08:44:29.324Z,95.60
2023-01-07T08:46:56.089Z,95.60
2023-01-07T08:49:23.182Z,95.50
2023-01-07T08:51:50.167Z,95.20
2023-01-07T08:54:16.843Z,95.60
2023-01-07T08:56:43.819Z,95.50
2023-01-07T08:59:10.806Z,95.70
2023-01-07T09:01:37.574Z,95.40
2023-01-07T09:04:04.636Z,95.50
2023-01-07T09:06:31.245Z,95.60
2023-01-07T09:08:58.261Z,95.80
2023-01-07T09:11:24.934Z,95.50
2023-01-07T09:13:52.046Z,95.30
2023-01-07T09:16:19.027Z,95.30
2023-01-07T09:18:45.791Z,95.30
2023-01-07T09:21:12.454Z,95.30
2023-01-07T09:23:40.288Z,95.40
2023-01-07T09:26:06.978Z,95.40
2023-01-07T09:28:33.635Z,95.20
2023-01-07T09:31:00.804Z,94.80
2023-01-07T09:33:27.455Z,94.40
2023-01-07T09:35:54.593Z,94.30
2023-01-07T09:38:21.228Z,94.60
2023-01-07T09:40:48.765Z,94.50
2023-01-07T09:44:00.504Z,94.40
2023-01-07T09:46:21.204Z,93.80
2023-01-07T09:48:53.979Z,93.00
2023-01-07T09:51:51.872Z,93.40
2023-01-07T09:54:33.053Z,92.20
2023-01-07T09:56:59.922Z,92.70
2023-01-07T09:59:26.924Z,91.20
2023-01-07T10:02:20.462Z,91.20
2023-01-07T10:04:57.620Z,90.40
2023-01-07T10:07:29.457Z,89.50
2023-01-07T10:09:56.284Z,90.00
2023-01-07T10:12:55.515Z,90.40
2023-01-07T10:15:36.662Z,90.90
2023-01-07T10:18:21.998Z,89.20
2023-01-07T10:20:59.727Z,89.10
2023-01-07T10:23:33.669Z,88.60
2023-01-07T10:26:02.355Z,88.30
2023-01-07T10:28:49.229Z,88.30
2023-01-07T10:31:22.455Z,87.90
2023-01-07T10:33:51.288Z,89.10
2023-01-07T10:36:33.370Z,88.30
2023-01-07T10:39:37.603Z,89.20
2023-01-07T10:42:30.250Z,86.40
2023-01-07T10:45:06.950Z,84.80
2023-01-07T10:47:45.164Z,83.00
2023-01-07T10:50:23.900Z,82.20
2023-01-07T10:53:07.339Z,83.00
2023-01-07T10:55:49.952Z,82.50
2023-01-07T10:58:16.642Z,81.20
2023-01-07T11:00:47.805Z,82.20
2023-01-07T11:03:23.996Z,80.20
2023-01-07T11:05:56.822Z,80.30
2023-01-07T11:08:29.622Z,79.50
2023-01-07T11:10:58.791Z,79.90
2023-01-07T11:13:36.673Z,79.40
2023-01-07T11:16:19.000Z,79.00
2023-01-07T11:18:59.256Z,79.40
2023-01-07T11:21:42.440Z,77.00
2023-01-07T11:24:35.777Z,77.50
2023-01-07T11:27:14.886Z,78.00
2023-01-07T11:29:46.030Z,77.10
2023-01-07T11:32:28.294Z,77.50
2023-01-07T11:34:59.825Z,76.40
2023-01-07T11:37:41.540Z,76.20
2023-01-07T11:40:14.052Z,75.10
2023-01-07T11:42:56.099Z,75.50
2023-01-07T11:45:26.653Z,75.80
2023-01-07T11:48:10.575Z,75.00
2023-01-07T11:50:42.971Z,74.90
2023-01-07T11:53:15.369Z,75.80
2023-01-07T11:56:11.897Z,76.60
2023-01-07T11:58:43.235Z,76.60
2023-01-07T12:01:10.199Z,75.80
2023-01-07T12:03:53.057Z,76.40
2023-01-07T12:06:35.357Z,76.20
2023-01-07T12:09:15.010Z,77.20
2023-01-07T12:11:44.582Z,77.90
2023-01-07T12:14:27.966Z,77.90
2023-01-07T12:16:56.192Z,77.90
2023-01-07T12:19:49.435Z,78.40
2023-01-07T12:22:45.753Z,78.60
2023-01-07T12:25:18.284Z,77.90
2023-01-07T12:28:18.694Z,79.10
2023-01-07T12:31:01.859Z,79.20
2023-01-07T12:33:57.646Z,79.70
2023-01-07T12:36:52.388Z,79.70
2023-01-07T12:39:30.396Z,79.70
2023-01-07T12:42:17.707Z,79.50
2023-01-07T12:44:49.224Z,79.00
2023-01-07T12:47:32.686Z,78.70
2023-01-07T12:50:15.715Z,78.30
2023-01-07T12:53:03.715Z,79.20
2023-01-07T12:55:30.451Z,78.90
2023-01-07T12:58:04.115Z,79.30
2023-01-07T13:00:40.754Z,79.40
2023-01-07T13:03:22.468Z,78.10
2023-01-07T13:05:55.085Z,76.40
2023-01-07T13:08:43.557Z,76.50
2023-01-07T13:11:43.508Z,73.60
2023-01-07T13:14:29.010Z,73.00
2023-01-07T13:17:20.259Z,71.90
2023-01-07T13:19:46.992Z,72.20
2023-01-07T13:22:41.051Z,72.20
2023-01-07T13:25:27.347Z,71.60
2023-01-07T13:28:05.734Z,72.00
2023-01-07T13:30:38.153Z,72.00
2023-01-07T13:33:04.807Z,73.00
2023-01-07T13:36:08.613Z,72.90
2023-01-07T13:38:57.620Z,72.40
2023-01-07T13:42:02.149Z,71.70
2023-01-07T13:44:50.812Z,72.50
2023-01-07T13:47:21.665Z,73.30
2023-01-07T13:49:57.426Z,73.40
2023-01-07T13:52:31.029Z,73.40
2023-01-07T13:55:01.302Z,73.80
2023-01-07T13:57:30.959Z,74.40
2023-01-07T14:00:04.614Z,74.50
2023-01-07T14:02:56.385Z,75.30
2023-01-07T14:05:26.348Z,74.70
2023-01-07T14:08:04.435Z,74.90
2023-01-07T14:10:36.486Z,74.30
2023-01-07T14:13:17.453Z,74.10
2023-01-07T14:15:55.958Z,73.80
2023-01-07T14:18:40.829Z,72.80
2023-01-07T14:21:40.092Z,73.70
2023-01-07T14:24:25.548Z,74.10
2023-01-07T14:27:12.219Z,74.10
2023-01-07T14:29:49.678Z,73.30
2023-01-07T14:32:25.146Z,73.40
2023-01-07T14:35:08.012Z,72.60
2023-01-07T14:37:40.462Z,72.60
2023-01-07T14:40:29.131Z,73.00
2023-01-07T14:43:03.477Z,72.80
2023-01-07T14:45:50.415Z,73.90
2023-01-07T14:48:17.062Z,73.30
2023-01-07T14:50:46.829Z,73.60
2023-01-07T14:53:16.622Z,73.60
2023-01-07T14:55:43.320Z,73.30
2023-01-07T14:58:33.005Z,73.30
2023-01-07T15:01:18.671Z,72.80
2023-01-07T15:03:58.045Z,73.30
2023-01-07T15:06:26.304Z,73.50
2023-01-07T15:09:20.639Z,73.70
2023-01-07T15:12:07.914Z,73.10
2023-01-07T15:15:16.303Z,73.40
2023-01-07T15:17:43.210Z,73.10
2023-01-07T15:20:10.468Z,73.20
2023-01-07T15:22:49.298Z,73.00
2023-01-07T15:25:22.712Z,73.00
2023-01-07T15:28:26.087Z,71.90
2023-01-07T15:31:16.412Z,72.80
2023-01-07T15:33:45.898Z,72.30
2023-01-07T15:36:17.489Z,72.50
2023-01-07T15:38:50.362Z,72.50
2023-01-07T15:41:36.299Z,72.80
2023-01-07T15:44:06.171Z,72.90
2023-01-07T15:46:33.985Z,73.20
2023-01-07T15:49:05.410Z,73.00
2023-01-07T15:51:36.924Z,73.90
2023-01-07T15:54:07.292Z,74.00
2023-01-07T15:56:36.383Z,75.00
2023-01-07T15:59:08.532Z,74.10
2023-01-07T16:01:47.911Z,73.80
2023-01-07T16:04:36.975Z,73.80
2023-01-07T16:07:03.933Z,73.50
2023-01-07T16:09:32.246Z,73.60
2023-01-07T16:12:00.684Z,74.60
2023-01-07T16:14:28.355Z,73.40
2023-01-07T16:17:15.967Z,73.70
2023-01-07T16:19:42.685Z,73.60
2023-01-07T16:22:14.834Z,73.80
2023-01-07T16:25:05.769Z,73.60
2023-01-07T16:27:33.248Z,74.10
2023-01-07T16:30:01.419Z,74.20
2023-01-07T16:32:28.362Z,75.10
2023-01-07T16:35:00.265Z,74.10
2023-01-07T16:37:28.639Z,74.00
2023-01-07T16:39:55.646Z,74.00
2023-01-07T16:42:27.173Z,74.00
2023-01-07T16:44:53.907Z,73.90
2023-01-07T16:47:23.165Z,73.80
2023-01-07T16:50:14.496Z,73.80
2023-01-07T16:52:54.367Z,73.60
2023-01-07T16:55:45.551Z,73.80
2023-01-07T16:58:34.580Z,73.30
2023-01-07T17:01:03.342Z,73.80
2023-01-07T17:03:42.822Z,74.00
2023-01-07T17:06:09.530Z,73.60
2023-01-07T17:08:36.651Z,73.50
2023-01-07T17:11:08.228Z,73.70
2023-01-07T17:13:41.064Z,73.50
2023-01-07T17:16:42.053Z,73.00
2023-01-07T17:19:26.157Z,73.00
2023-01-07T17:21:53.949Z,73.20
2023-01-07T17:24:27.665Z,73.80
2023-01-07T17:26:58.125Z,73.20
2023-01-07T17:29:34.821Z,73.30
2023-01-07T17:32:02.671Z,72.50
2023-01-07T17:34:29.342Z,72.80
2023-01-07T17:36:55.955Z,72.90
2023-01-07T17:39:22.649Z,72.60
2023-01-07T17:42:08.011Z,72.60
2023-01-07T17:44:34.709Z,72.20
2023-01-07T17:47:02.541Z,72.20
2023-01-07T17:49:29.213Z,72.80
2023-01-07T17:51:55.910Z,72.30
2023-01-07T17:54:24.612Z,72.60
2023-01-07T17:56:52.327Z,72.80
2023-01-07T17:59:21.531Z,73.90
2023-01-07T18:01:49.379Z,73.50
2023-01-07T18:04:17.597Z,73.90
2023-01-07T18:06:45.572Z,73.90
2023-01-07T18:09:13.678Z,74.10
2023-01-07T18:12:02.429Z,74.20
2023-01-07T18:14:29.071Z,74.70
2023-01-07T18:16:55.947Z,74.90
2023-01-07T18:19:22.612Z,74.80
2023-01-07T18:21:49.318Z,74.90
2023-01-07T18:24:17.949Z,74.90
2023-01-07T18:26:44.645Z,75.20
2023-01-07T18:29:12.226Z,75.30
2023-01-07T18:31:44.208Z,75.40
2023-01-07T18:34:13.236Z,75.60
2023-01-07T18:36:39.974Z,75.60
2023-01-07T18:39:09.788Z,75.90
2023-01-07T18:41:39.125Z,76.00
2023-01-07T18:44:05.907Z,75.80
2023-01-07T18:46:32.551Z,75.50
2023-01-07T18:48:59.859Z,75.70
2023-01-07T18:51:26.588Z,75.70
2023-01-07T18:53:53.279Z,75.90
2023-01-07T18:56:20.078Z,76.10
2023-01-07T18:58:46.958Z,76.30
2023-01-07T19:01:13.724Z,76.40
2023-01-07T19:03:41.437Z,76.50
2023-01-07T19:06:09.434Z,76.40
2023-01-07T19:08:36.275Z,77.00
2023-01-07T19:11:09.603Z,77.70
2023-01-07T19:13:36.527Z,77.60
2023-01-07T19:16:11.240Z,77.50
2023-01-07T19:18:38.486Z,77.20
2023-01-07T19:21:07.739Z,77.30
2023-01-07T19:23:34.391Z,77.20
2023-01-07T19:26:03.200Z,77.50
2023-01-07T19:28:31.637Z,77.40
2023-01-07T19:30:59.079Z,77.10
2023-01-07T19:33:26.324Z,77.30
2023-01-07T19:36:09.204Z,77.30
2023-01-07T19:38:41.029Z,77.60
2023-01-07T19:41:09.359Z,77.50
2023-01-07T19:43:36.083Z,77.60
2023-01-07T19:46:02.853Z,78.10
2023-01-07T19:48:29.495Z,78.10
2023-01-07T19:51:01.014Z,78.10
2023-01-07T19:53:29.243Z,78.60
2023-01-07T19:56:00.302Z,78.90
2023-01-07T19:58:27.811Z,79.20
2023-01-07T20:00:54.652Z,79.40
2023-01-07T20:03:21.736Z,79.70
2023-01-07T20:05:48.407Z,79.90
2023-01-07T20:08:16.541Z,79.70
2023-01-07T20:10:43.845Z,79.90
2023-01-07T20:13:10.502Z,79.90
2023-01-07T20:15:37.322Z,79.60
2023-01-07T20:18:04.581Z,79.80
2023-01-07T20:20:31.226Z,80.00
2023-01-07T20:22:58.742Z,80.20
2023-01-07T20:25:25.612Z,80.20
2023-01-07T20:27:52.291Z,80.30
2023-01-07T20:30:18.981Z,80.40
2023-01-07T20:32:46.170Z,80.80
2023-01-07T20:35:13.615Z,80.90
2023-01-07T20:37:40.675Z,81.00
2023-01-07T20:40:08.378Z,81.20
2023-01-07T20:42:35.707Z,81.40
2023-01-07T20:45:02.374Z,81.50
2023-01-07T20:47:29.085Z,81.50
2023-01-07T20:49:55.931Z,81.60
2023-01-07T20:52:22.560Z,82.60
2023-01-07T20:54:49.324Z,82.60
2023-01-07T20:57:15.924Z,82.60
2023-01-07T20:59:42.688Z,82.70
2023-01-07T21:02:16.767Z,82.70
2023-01-07T21:04:43.908Z,82.60
2023-01-07T21:07:10.540Z,82.90
2023-01-07T21:09:37.275Z,83.40
2023-01-07T21:12:04.075Z,83.50
2023-01-07T21:14:31.736Z,83.70
2023-01-07T21:16:58.423Z,84.40
2023-01-07T21:19:25.112Z,85.30
2023-01-07T21:21:51.738Z,85.60
2023-01-07T21:24:18.538Z,85.20
2023-01-07T21:26:45.242Z,85.10
2023-01-07T21:29:11.932Z,84.80
2023-01-07T21:31:38.658Z,85.20
2023-01-07T21:34:05.558Z,85.20
2023-01-07T21:36:32.181Z,85.20
2023-01-07T21:38:59.444Z,85.00
2023-01-07T21:41:27.151Z,85.30
2023-01-07T21:43:54.580Z,85.50
2023-01-07T21:46:24.647Z,85.70
2023-01-07T21:48:51.946Z,85.80
2023-01-07T21:51:28.256Z,86.10
2023-01-07T21:53:56.407Z,86.20
2023-01-07T21:56:24.624Z,86.10
2023-01-07T21:58:51.540Z,85.80
2023-01-07T22:01:19.713Z,86.00
2023-01-07T22:03:48.436Z,86.30
2023-01-07T22:06:22.043Z,87.20
2023-01-07T22:08:49.921Z,87.00
2023-01-07T22:11:17.751Z,87.30
2023-01-07T22:13:44.461Z,87.20
2023-01-07T22:16:11.171Z,87.40
2023-01-07T22:18:37.955Z,87.20
2023-01-07T22:21:04.660Z,87.30
2023-01-07T22:23:31.393Z,88.20
2023-01-07T22:26:08.403Z,87.30
2023-01-07T22:28:36.950Z,87.20
2023-01-07T22:31:13.207Z,86.80
2023-01-07T22:33:39.948Z,86.60
2023-01-07T22:36:07.497Z,86.30
2023-01-07T22:38:34.255Z,86.10
2023-01-07T22:41:03.043Z,85.70
2023-01-07T22:43:30.272Z,85.50
2023-01-07T22:46:08.498Z,85.70
2023-01-07T22:48:36.071Z,85.40
2023-01-07T22:51:11.432Z,85.50
2023-01-07T22:53:38.236Z,85.50
2023-01-07T22:56:05.318Z,85.10
2023-01-07T22:58:31.986Z,84.20
2023-01-07T23:00:58.761Z,84.00
2023-01-07T23:03:26.018Z,83.70
2023-01-07T23:05:52.863Z,83.70
2023-01-07T23:08:19.582Z,84.10
2023-01-07T23:10:48.617Z,84.40
2023-01-07T23:13:15.734Z,85.10
2023-01-07T23:15:42.334Z,84.10
2023-01-07T23:18:11.237Z,84.10
2023-01-07T23:20:40.546Z,84.40
2023-01-07T23:23:07.632Z,84.70
2023-01-07T23:25:35.414Z,84.10
2023-01-07T23:28:02.728Z,84.10
2023-01-07T23:30:30.024Z,84.00
2023-01-07T23:32:56.633Z,83.00
2023-01-07T23:35:23.307Z,82.60
2023-01-07T23:37:49.945Z,82.90
2023-01-07T23:40:17.835Z,82.00
2023-01-07T23:42:49.122Z,80.40
2023-01-07T23:45:16.610Z,80.60
2023-01-07T23:47:43.467Z,79.60
2023-01-07T23:50:10.116Z,79.40
2023-01-07T23:52:36.761Z,78.60
2023-01-07T23:55:05.563Z,78.20
2023-01-07T23:57:32.183Z,78.20
2023-01-07T23:59:58.914Z,77.60
